sensor_id;sensor_type;location;lat;lon;timestamp;pressure;altitude;pressure_sealevel;temperature;humidity
54556;BME280;57291;37.520;15.106;2023-09-12T00:00:52;101153.06;;;23.89;66.65
54556;BME280;57291;37.520;15.106;2023-09-12T00:03:20;101149.84;;;23.87;66.60
54556;BME280;57291;37.520;15.106;2023-09-12T00:05:55;101154.97;;;23.85;67.18
54556;BME280;57291;37.520;15.106;2023-09-12T00:08:23;101137.09;;;23.82;66.89
54556;BME280;57291;37.520;15.106;2023-09-12T00:11:06;101143.75;;;23.78;67.03
54556;BME280;57291;37.520;15.106;2023-09-12T00:13:38;101138.97;;;23.75;67.03
54556;BME280;57291;37.520;15.106;2023-09-12T00:16:06;101141.34;;;23.73;67.53
54556;BME280;57291;37.520;15.106;2023-09-12T00:18:33;101139.31;;;23.70;67.30
54556;BME280;57291;37.520;15.106;2023-09-12T00:21:01;101135.72;;;23.69;67.58
54556;BME280;57291;37.520;15.106;2023-09-12T00:23:29;101128.50;;;23.64;67.67
54556;BME280;57291;37.520;15.106;2023-09-12T00:25:57;101135.56;;;23.62;67.62
54556;BME280;57291;37.520;15.106;2023-09-12T00:28:24;101136.72;;;23.57;67.44
54556;BME280;57291;37.520;15.106;2023-09-12T00:30:52;101133.56;;;23.59;67.61
54556;BME280;57291;37.520;15.106;2023-09-12T00:33:19;101139.94;;;23.59;67.58
54556;BME280;57291;37.520;15.106;2023-09-12T00:35:46;101131.59;;;23.59;67.78
54556;BME280;57291;37.520;15.106;2023-09-12T00:38:13;101134.38;;;23.59;68.38
54556;BME280;57291;37.520;15.106;2023-09-12T00:40:40;101140.34;;;23.61;68.33
54556;BME280;57291;37.520;15.106;2023-09-12T00:43:09;101141.91;;;23.62;68.06
54556;BME280;57291;37.520;15.106;2023-09-12T00:45:37;101137.56;;;23.61;68.46
54556;BME280;57291;37.520;15.106;2023-09-12T00:48:05;101138.00;;;23.63;68.35
54556;BME280;57291;37.520;15.106;2023-09-12T00:50:34;101138.00;;;23.63;68.55
54556;BME280;57291;37.520;15.106;2023-09-12T00:53:03;101142.75;;;23.63;68.38
54556;BME280;57291;37.520;15.106;2023-09-12T00:55:32;101138.78;;;23.64;68.48
54556;BME280;57291;37.520;15.106;2023-09-12T00:58:00;101136.38;;;23.62;68.72
54556;BME280;57291;37.520;15.106;2023-09-12T01:00:28;101133.97;;;23.61;68.93
54556;BME280;57291;37.520;15.106;2023-09-12T01:02:56;101133.50;;;23.55;68.99
54556;BME280;57291;37.520;15.106;2023-09-12T01:05:26;101126.31;;;23.51;68.88
54556;BME280;57291;37.520;15.106;2023-09-12T01:07:55;101125.06;;;23.48;69.17
54556;BME280;57291;37.520;15.106;2023-09-12T01:10:23;101123.03;;;23.45;68.92
54556;BME280;57291;37.520;15.106;2023-09-12T01:12:50;101124.66;;;23.46;68.58
54556;BME280;57291;37.520;15.106;2023-09-12T01:15:18;101119.13;;;23.46;68.01
54556;BME280;57291;37.520;15.106;2023-09-12T01:17:45;101125.47;;;23.47;67.98
54556;BME280;57291;37.520;15.106;2023-09-12T01:20:39;101120.66;;;23.44;67.62
54556;BME280;57291;37.520;15.106;2023-09-12T01:23:44;101117.84;;;23.40;67.60
54556;BME280;57291;37.520;15.106;2023-09-12T01:28:42;101110.06;;;23.26;67.92
54556;BME280;57291;37.520;15.106;2023-09-12T01:31:12;101114.41;;;23.24;68.04
54556;BME280;57291;37.520;15.106;2023-09-12T01:33:40;101102.84;;;23.18;68.28
54556;BME280;57291;37.520;15.106;2023-09-12T01:36:09;101098.09;;;23.18;67.82
54556;BME280;57291;37.520;15.106;2023-09-12T01:38:37;101105.22;;;23.20;67.75
54556;BME280;57291;37.520;15.106;2023-09-12T01:41:04;101092.53;;;23.18;67.17
54556;BME280;57291;37.520;15.106;2023-09-12T01:43:33;101090.16;;;23.17;67.19
54556;BME280;57291;37.520;15.106;2023-09-12T01:46:03;101094.50;;;23.18;67.03
54556;BME280;57291;37.520;15.106;2023-09-12T01:48:35;101095.31;;;23.18;66.86
54556;BME280;57291;37.520;15.106;2023-09-12T01:51:04;101088.19;;;23.17;66.85
54556;BME280;57291;37.520;15.106;2023-09-12T01:53:33;101093.28;;;23.15;67.24
54556;BME280;57291;37.520;15.106;2023-09-12T01:56:01;101087.72;;;23.15;67.38
54556;BME280;57291;37.520;15.106;2023-09-12T01:58:29;101099.25;;;23.17;66.78
54556;BME280;57291;37.520;15.106;2023-09-12T02:00:57;101102.84;;;23.18;66.53
54556;BME280;57291;37.520;15.106;2023-09-12T02:03:25;101091.31;;;23.16;65.81
54556;BME280;57291;37.520;15.106;2023-09-12T02:05:52;101095.25;;;23.15;66.22
54556;BME280;57291;37.520;15.106;2023-09-12T02:08:19;101097.19;;;23.11;65.43
54556;BME280;57291;37.520;15.106;2023-09-12T02:10:46;101103.06;;;23.09;65.60
54556;BME280;57291;37.520;15.106;2023-09-12T02:13:15;101100.25;;;23.06;65.02
54556;BME280;57291;37.520;15.106;2023-09-12T02:15:43;101097.13;;;23.07;64.70
54556;BME280;57291;37.520;15.106;2023-09-12T02:18:10;101107.03;;;23.08;64.33
54556;BME280;57291;37.520;15.106;2023-09-12T02:20:40;101105.44;;;23.07;64.43
54556;BME280;57291;37.520;15.106;2023-09-12T02:23:09;101103.81;;;23.06;64.69
54556;BME280;57291;37.520;15.106;2023-09-12T02:25:37;101103.81;;;23.06;64.46
54556;BME280;57291;37.520;15.106;2023-09-12T02:28:04;101102.16;;;23.02;63.69
54556;BME280;57291;37.520;15.106;2023-09-12T02:30:31;101096.63;;;23.02;63.60
54556;BME280;57291;37.520;15.106;2023-09-12T02:33:01;101094.97;;;22.97;62.91
54556;BME280;57291;37.520;15.106;2023-09-12T02:35:28;101098.56;;;22.98;62.66
54556;BME280;57291;37.520;15.106;2023-09-12T02:37:55;101096.44;;;22.91;62.30
54556;BME280;57291;37.520;15.106;2023-09-12T02:40:24;101107.47;;;22.87;62.71
54556;BME280;57291;37.520;15.106;2023-09-12T02:42:52;101103.81;;;22.83;62.64
54556;BME280;57291;37.520;15.106;2023-09-12T02:45:21;101098.25;;;22.83;62.53
54556;BME280;57291;37.520;15.106;2023-09-12T02:47:48;101097.53;;;22.86;62.57
54556;BME280;57291;37.520;15.106;2023-09-12T02:50:15;101102.72;;;22.88;62.10
54556;BME280;57291;37.520;15.106;2023-09-12T02:52:44;101116.13;;;22.86;62.21
54556;BME280;57291;37.520;15.106;2023-09-12T02:55:11;101109.34;;;22.83;61.93
54556;BME280;57291;37.520;15.106;2023-09-12T02:57:38;101102.16;;;22.79;62.13
54556;BME280;57291;37.520;15.106;2023-09-12T03:00:06;101105.22;;;22.74;62.66
54556;BME280;57291;37.520;15.106;2023-09-12T03:02:35;101106.41;;;22.73;62.59
54556;BME280;57291;37.520;15.106;2023-09-12T03:05:02;101100.84;;;22.73;62.79
54556;BME280;57291;37.520;15.106;2023-09-12T03:07:30;101104.06;;;22.75;62.24
54556;BME280;57291;37.520;15.106;2023-09-12T03:09:58;101095.75;;;22.75;62.28
54556;BME280;57291;37.520;15.106;2023-09-12T03:12:25;101106.41;;;22.73;62.64
54556;BME280;57291;37.520;15.106;2023-09-12T03:14:52;101106.56;;;22.60;62.66
54556;BME280;57291;37.520;15.106;2023-09-12T03:17:20;101124.28;;;22.56;65.54
54556;BME280;57291;37.520;15.106;2023-09-12T03:19:47;101102.81;;;22.49;65.52
54556;BME280;57291;37.520;15.106;2023-09-12T03:22:14;101107.16;;;22.50;65.17
54556;BME280;57291;37.520;15.106;2023-09-12T03:24:43;101098.13;;;22.53;65.17
54556;BME280;57291;37.520;15.106;2023-09-12T03:27:12;101099.38;;;22.56;64.59
54556;BME280;57291;37.520;15.106;2023-09-12T03:29:39;101103.31;;;22.55;64.75
54556;BME280;57291;37.520;15.106;2023-09-12T03:32:07;101101.34;;;22.55;64.58
54556;BME280;57291;37.520;15.106;2023-09-12T03:34:34;101098.91;;;22.54;64.23
54556;BME280;57291;37.520;15.106;2023-09-12T03:37:01;101092.59;;;22.53;64.70
54556;BME280;57291;37.520;15.106;2023-09-12T03:39:28;101100.53;;;22.55;64.84
54556;BME280;57291;37.520;15.106;2023-09-12T03:41:55;101086.38;;;22.60;63.96
54556;BME280;57291;37.520;15.106;2023-09-12T03:44:23;101099.88;;;22.61;63.64
54556;BME280;57291;37.520;15.106;2023-09-12T03:46:50;101107.38;;;22.61;63.52
54556;BME280;57291;37.520;15.106;2023-09-12T03:49:17;101113.28;;;22.59;63.77
54556;BME280;57291;37.520;15.106;2023-09-12T03:51:44;101112.47;;;22.59;63.94
54556;BME280;57291;37.520;15.106;2023-09-12T03:54:12;101112.03;;;22.57;64.48
54556;BME280;57291;37.520;15.106;2023-09-12T03:56:39;101116.50;;;22.61;63.89
54556;BME280;57291;37.520;15.106;2023-09-12T03:59:08;101124.34;;;22.59;64.35
54556;BME280;57291;37.520;15.106;2023-09-12T04:01:35;101126.69;;;22.57;64.48
54556;BME280;57291;37.520;15.106;2023-09-12T04:04:03;101124.69;;;22.54;64.95
54556;BME280;57291;37.520;15.106;2023-09-12T04:06:31;101125.81;;;22.53;64.98
54556;BME280;57291;37.520;15.106;2023-09-12T04:08:58;101129.03;;;22.55;65.94
54556;BME280;57291;37.520;15.106;2023-09-12T04:11:25;101132.97;;;22.54;66.67
54556;BME280;57291;37.520;15.106;2023-09-12T04:14:05;101128.19;;;22.51;66.91
54556;BME280;57291;37.520;15.106;2023-09-12T04:16:32;101132.88;;;22.51;67.12
54556;BME280;57291;37.520;15.106;2023-09-12T04:19:00;101133.66;;;22.47;66.79
54556;BME280;57291;37.520;15.106;2023-09-12T04:21:28;101131.97;;;22.43;67.09
54556;BME280;57291;37.520;15.106;2023-09-12T04:23:55;101138.69;;;22.42;66.56
54556;BME280;57291;37.520;15.106;2023-09-12T04:26:22;101140.72;;;22.45;65.64
54556;BME280;57291;37.520;15.106;2023-09-12T04:28:49;101132.81;;;22.47;65.11
54556;BME280;57291;37.520;15.106;2023-09-12T04:31:17;101138.38;;;22.47;65.16
54556;BME280;57291;37.520;15.106;2023-09-12T04:33:44;101138.31;;;22.43;65.13
54556;BME280;57291;37.520;15.106;2023-09-12T04:36:11;101142.25;;;22.42;64.67
54556;BME280;57291;37.520;15.106;2023-09-12T04:38:38;101144.28;;;22.45;63.94
54556;BME280;57291;37.520;15.106;2023-09-12T04:41:05;101142.31;;;22.46;62.75
54556;BME280;57291;37.520;15.106;2023-09-12T04:43:33;101140.84;;;22.52;62.07
54556;BME280;57291;37.520;15.106;2023-09-12T04:46:00;101142.56;;;22.60;61.88
54556;BME280;57291;37.520;15.106;2023-09-12T04:48:29;101140.09;;;22.75;61.56
54556;BME280;57291;37.520;15.106;2023-09-12T04:50:56;101141.72;;;22.99;60.52
54556;BME280;57291;37.520;15.106;2023-09-12T04:53:23;101144.97;;;23.27;59.30
54556;BME280;57291;37.520;15.106;2023-09-12T04:55:54;101155.47;;;23.68;58.16
54556;BME280;57291;37.520;15.106;2023-09-12T04:58:21;101156.94;;;24.15;56.25
54556;BME280;57291;37.520;15.106;2023-09-12T05:00:48;101157.59;;;24.68;55.65
54556;BME280;57291;37.520;15.106;2023-09-12T05:03:15;101165.22;;;25.16;52.60
54556;BME280;57291;37.520;15.106;2023-09-12T05:05:49;101168.00;;;25.67;52.88
54556;BME280;57291;37.520;15.106;2023-09-12T05:08:17;101166.75;;;26.34;52.12
54556;BME280;57291;37.520;15.106;2023-09-12T05:10:47;101164.13;;;26.81;48.96
54556;BME280;57291;37.520;15.106;2023-09-12T05:13:14;101169.31;;;27.54;49.33
54556;BME280;57291;37.520;15.106;2023-09-12T05:15:43;101179.59;;;28.14;48.47
54556;BME280;57291;37.520;15.106;2023-09-12T05:18:10;101176.16;;;28.69;47.45
54556;BME280;57291;37.520;15.106;2023-09-12T05:20:38;101173.78;;;29.24;45.69
54556;BME280;57291;37.520;15.106;2023-09-12T05:23:05;101175.03;;;29.64;43.29
54556;BME280;57291;37.520;15.106;2023-09-12T05:25:33;101183.38;;;30.05;42.88
54556;BME280;57291;37.520;15.106;2023-09-12T05:28:00;101179.22;;;30.17;43.56
54556;BME280;57291;37.520;15.106;2023-09-12T05:30:27;101179.69;;;30.46;43.79
54556;BME280;57291;37.520;15.106;2023-09-12T05:32:54;101180.84;;;31.06;42.36
54556;BME280;57291;37.520;15.106;2023-09-12T05:35:21;101180.78;;;31.57;42.06
54556;BME280;57291;37.520;15.106;2023-09-12T05:37:50;101177.66;;;31.95;40.66
54556;BME280;57291;37.520;15.106;2023-09-12T05:40:18;101179.06;;;32.07;39.95
54556;BME280;57291;37.520;15.106;2023-09-12T05:42:46;101186.19;;;32.51;39.32
54556;BME280;57291;37.520;15.106;2023-09-12T05:45:13;101187.78;;;32.68;38.52
54556;BME280;57291;37.520;15.106;2023-09-12T05:47:41;101187.06;;;33.01;37.62
54556;BME280;57291;37.520;15.106;2023-09-12T05:50:08;101197.97;;;33.31;36.63
54556;BME280;57291;37.520;15.106;2023-09-12T05:52:35;101197.56;;;33.46;35.66
54556;BME280;57291;37.520;15.106;2023-09-12T05:55:03;101204.13;;;33.88;35.96
54556;BME280;57291;37.520;15.106;2023-09-12T05:57:31;101204.59;;;34.16;35.66
54556;BME280;57291;37.520;15.106;2023-09-12T06:00:01;101208.25;;;33.22;36.59
54556;BME280;57291;37.520;15.106;2023-09-12T06:02:38;101199.75;;;32.73;37.34
54556;BME280;57291;37.520;15.106;2023-09-12T06:05:06;101209.03;;;33.22;38.17
54556;BME280;57291;37.520;15.106;2023-09-12T06:07:34;101202.53;;;33.09;39.87
54556;BME280;57291;37.520;15.106;2023-09-12T06:10:02;101205.19;;;32.63;41.10
54556;BME280;57291;37.520;15.106;2023-09-12T06:12:29;101200.88;;;33.11;40.42
54556;BME280;57291;37.520;15.106;2023-09-12T06:14:57;101210.09;;;33.28;40.43
54556;BME280;57291;37.520;15.106;2023-09-12T06:17:24;101213.28;;;33.14;40.48
54556;BME280;57291;37.520;15.106;2023-09-12T06:19:51;101214.91;;;32.95;40.52
54556;BME280;57291;37.520;15.106;2023-09-12T06:22:18;101215.75;;;32.76;41.39
54556;BME280;57291;37.520;15.106;2023-09-12T06:24:46;101216.00;;;32.65;41.55
54556;BME280;57291;37.520;15.106;2023-09-12T06:27:13;101214.56;;;32.57;42.63
54556;BME280;57291;37.520;15.106;2023-09-12T06:29:46;101228.13;;;32.42;42.79
54556;BME280;57291;37.520;15.106;2023-09-12T06:32:16;101229.06;;;31.48;45.94
54556;BME280;57291;37.520;15.106;2023-09-12T06:34:44;101230.47;;;31.84;44.98
54556;BME280;57291;37.520;15.106;2023-09-12T06:37:11;101237.44;;;32.19;44.09
54556;BME280;57291;37.520;15.106;2023-09-12T06:39:38;101240.31;;;31.95;45.57
54556;BME280;57291;37.520;15.106;2023-09-12T06:42:06;101242.19;;;32.42;44.24
54556;BME280;57291;37.520;15.106;2023-09-12T06:44:33;101246.50;;;32.66;43.75
54556;BME280;57291;37.520;15.106;2023-09-12T06:47:00;101248.97;;;32.44;43.84
54556;BME280;57291;37.520;15.106;2023-09-12T06:49:28;101241.22;;;32.52;43.96
54556;BME280;57291;37.520;15.106;2023-09-12T06:51:59;101249.97;;;32.54;44.45
54556;BME280;57291;37.520;15.106;2023-09-12T06:54:26;101249.09;;;31.97;45.02
54556;BME280;57291;37.520;15.106;2023-09-12T06:56:53;101253.16;;;31.73;45.53
54556;BME280;57291;37.520;15.106;2023-09-12T06:59:20;101249.41;;;31.80;45.27
54556;BME280;57291;37.520;15.106;2023-09-12T07:01:47;101253.56;;;31.71;45.68
54556;BME280;57291;37.520;15.106;2023-09-12T07:04:15;101254.13;;;31.39;46.20
54556;BME280;57291;37.520;15.106;2023-09-12T07:06:42;101259.38;;;31.37;46.74
54556;BME280;57291;37.520;15.106;2023-09-12T07:09:09;101252.53;;;31.62;45.85
54556;BME280;57291;37.520;15.106;2023-09-12T07:11:38;101248.38;;;31.93;45.21
54556;BME280;57291;37.520;15.106;2023-09-12T07:14:05;101255.34;;;32.29;43.90
54556;BME280;57291;37.520;15.106;2023-09-12T07:16:32;101264.19;;;32.07;44.74
54556;BME280;57291;37.520;15.106;2023-09-12T07:18:59;101260.84;;;31.92;45.28
54556;BME280;57291;37.520;15.106;2023-09-12T07:21:27;101260.66;;;31.80;45.46
54556;BME280;57291;37.520;15.106;2023-09-12T07:23:55;101275.88;;;30.74;47.68
54556;BME280;57291;37.520;15.106;2023-09-12T07:26:22;101273.22;;;31.21;46.42
54556;BME280;57291;37.520;15.106;2023-09-12T07:28:53;101282.38;;;31.25;46.63
54556;BME280;57291;37.520;15.106;2023-09-12T07:31:20;101274.88;;;30.91;47.42
54556;BME280;57291;37.520;15.106;2023-09-12T07:33:48;101277.97;;;30.66;47.90
54556;BME280;57291;37.520;15.106;2023-09-12T07:36:15;101279.53;;;30.36;49.18
54556;BME280;57291;37.520;15.106;2023-09-12T07:38:43;101278.50;;;30.57;48.38
54556;BME280;57291;37.520;15.106;2023-09-12T07:41:12;101281.47;;;30.43;49.11
54556;BME280;57291;37.520;15.106;2023-09-12T07:43:39;101284.00;;;30.34;48.81
54556;BME280;57291;37.520;15.106;2023-09-12T07:46:07;101290.59;;;30.51;49.44
54556;BME280;57291;37.520;15.106;2023-09-12T07:48:35;101289.31;;;30.25;49.16
54556;BME280;57291;37.520;15.106;2023-09-12T07:51:14;101294.28;;;30.78;48.70
54556;BME280;57291;37.520;15.106;2023-09-12T07:53:42;101303.47;;;31.10;48.47
54556;BME280;57291;37.520;15.106;2023-09-12T07:56:10;101299.63;;;30.31;49.27
54556;BME280;57291;37.520;15.106;2023-09-12T07:58:38;101303.91;;;30.43;49.42
54556;BME280;57291;37.520;15.106;2023-09-12T08:01:09;101310.78;;;30.38;49.98
54556;BME280;57291;37.520;15.106;2023-09-12T08:03:38;101309.94;;;30.00;50.52
54556;BME280;57291;37.520;15.106;2023-09-12T08:06:07;101305.81;;;30.12;50.48
54556;BME280;57291;37.520;15.106;2023-09-12T08:08:34;101310.47;;;29.88;51.36
54556;BME280;57291;37.520;15.106;2023-09-12T08:11:01;101308.59;;;29.71;51.91
54556;BME280;57291;37.520;15.106;2023-09-12T08:13:29;101318.78;;;29.43;53.29
54556;BME280;57291;37.520;15.106;2023-09-12T08:15:57;101305.34;;;29.20;53.24
54556;BME280;57291;37.520;15.106;2023-09-12T08:18:29;101302.75;;;28.81;54.65
54556;BME280;57291;37.520;15.106;2023-09-12T08:20:58;101310.88;;;28.46;55.71
54556;BME280;57291;37.520;15.106;2023-09-12T08:23:25;101310.84;;;28.32;56.54
54556;BME280;57291;37.520;15.106;2023-09-12T08:25:52;101304.91;;;28.30;56.16
54556;BME280;57291;37.520;15.106;2023-09-12T08:28:19;101304.91;;;28.19;56.96
54556;BME280;57291;37.520;15.106;2023-09-12T08:30:47;101310.88;;;28.21;57.23
54556;BME280;57291;37.520;15.106;2023-09-12T08:33:14;101310.94;;;27.89;58.45
54556;BME280;57291;37.520;15.106;2023-09-12T08:35:42;101302.56;;;27.86;59.02
54556;BME280;57291;37.520;15.106;2023-09-12T08:38:09;101308.94;;;27.82;59.38
54556;BME280;57291;37.520;15.106;2023-09-12T08:40:37;101314.50;;;27.68;60.51
54556;BME280;57291;37.520;15.106;2023-09-12T08:43:04;101315.72;;;27.74;60.25
54556;BME280;57291;37.520;15.106;2023-09-12T08:45:31;101313.31;;;27.69;60.51
54556;BME280;57291;37.520;15.106;2023-09-12T08:48:00;101306.50;;;27.63;60.83
54556;BME280;57291;37.520;15.106;2023-09-12T08:50:28;101313.69;;;27.43;62.11
54556;BME280;57291;37.520;15.106;2023-09-12T08:53:00;101310.88;;;27.35;63.05
54556;BME280;57291;37.520;15.106;2023-09-12T08:55:35;101311.69;;;27.36;62.81
54556;BME280;57291;37.520;15.106;2023-09-12T08:58:04;101312.88;;;27.31;63.22
54556;BME280;57291;37.520;15.106;2023-09-12T09:00:32;101308.88;;;27.32;64.36
54556;BME280;57291;37.520;15.106;2023-09-12T09:03:00;101312.44;;;27.15;64.43
54556;BME280;57291;37.520;15.106;2023-09-12T09:05:28;101317.56;;;27.02;66.37
54556;BME280;57291;37.520;15.106;2023-09-12T09:07:57;101315.53;;;26.96;67.65
54556;BME280;57291;37.520;15.106;2023-09-12T09:10:25;101312.38;;;27.04;67.91
54556;BME280;57291;37.520;15.106;2023-09-12T09:13:14;101321.16;;;27.10;67.67
54556;BME280;57291;37.520;15.106;2023-09-12T09:15:41;101319.47;;;26.84;67.55
54556;BME280;57291;37.520;15.106;2023-09-12T09:18:11;101321.50;;;26.94;68.11
54556;BME280;57291;37.520;15.106;2023-09-12T09:20:40;101322.34;;;27.05;66.38
54556;BME280;57291;37.520;15.106;2023-09-12T09:23:09;101322.78;;;27.15;64.83
54556;BME280;57291;37.520;15.106;2023-09-12T09:25:42;101325.63;;;27.18;65.19
54556;BME280;57291;37.520;15.106;2023-09-12T09:28:18;101316.84;;;27.30;63.63
54556;BME280;57291;37.520;15.106;2023-09-12T09:30:50;101319.66;;;27.38;64.16
54556;BME280;57291;37.520;15.106;2023-09-12T09:33:19;101325.66;;;27.50;62.67
54556;BME280;57291;37.520;15.106;2023-09-12T09:35:48;101316.88;;;27.48;62.26
54556;BME280;57291;37.520;15.106;2023-09-12T09:38:19;101318.47;;;27.39;63.04
54556;BME280;57291;37.520;15.106;2023-09-12T09:40:48;101313.69;;;27.57;61.65
54556;BME280;57291;37.520;15.106;2023-09-12T09:43:22;101310.50;;;27.66;58.44
54556;BME280;57291;37.520;15.106;2023-09-12T09:45:55;101315.31;;;27.83;57.20
54556;BME280;57291;37.520;15.106;2023-09-12T09:48:25;101318.50;;;27.96;55.36
54556;BME280;57291;37.520;15.106;2023-09-12T09:51:03;101314.09;;;28.16;52.78
54556;BME280;57291;37.520;15.106;2023-09-12T09:53:31;101314.50;;;28.08;54.56
54556;BME280;57291;37.520;15.106;2023-09-12T09:56:15;101302.56;;;27.86;54.74
54556;BME280;57291;37.520;15.106;2023-09-12T10:01:18;101306.50;;;27.63;60.04
54556;BME280;57291;37.520;15.106;2023-09-12T10:03:47;101304.09;;;27.40;61.65
54556;BME280;57291;37.520;15.106;2023-09-12T10:06:16;101302.91;;;27.38;62.43
54556;BME280;57291;37.520;15.106;2023-09-12T10:08:46;101313.66;;;27.28;63.67
54556;BME280;57291;37.520;15.106;2023-09-12T10:11:19;101310.03;;;27.21;61.61
54556;BME280;57291;37.520;15.106;2023-09-12T10:13:55;101308.03;;;27.14;65.60
54556;BME280;57291;37.520;15.106;2023-09-12T10:16:24;101316.47;;;27.25;65.08
54556;BME280;57291;37.520;15.106;2023-09-12T10:19:16;101320.47;;;27.34;68.48
54556;BME280;57291;37.520;15.106;2023-09-12T10:21:50;101305.69;;;27.34;64.36
54556;BME280;57291;37.520;15.106;2023-09-12T10:24:21;101306.09;;;27.36;64.80
54556;BME280;57291;37.520;15.106;2023-09-12T10:26:50;101307.72;;;27.48;65.21
54556;BME280;57291;37.520;15.106;2023-09-12T10:29:17;101304.50;;;27.64;65.62
54556;BME280;57291;37.520;15.106;2023-09-12T10:31:45;101303.72;;;27.59;66.01
54556;BME280;57291;37.520;15.106;2023-09-12T10:34:20;101308.13;;;27.89;66.86
54556;BME280;57291;37.520;15.106;2023-09-12T10:36:49;101299.38;;;27.98;68.29
54556;BME280;57291;37.520;15.106;2023-09-12T10:39:19;101292.59;;;27.92;68.60
54556;BME280;57291;37.520;15.106;2023-09-12T10:41:46;101290.97;;;27.80;66.30
54556;BME280;57291;37.520;15.106;2023-09-12T10:44:17;101297.34;;;27.66;68.51
54556;BME280;57291;37.520;15.106;2023-09-12T10:46:45;101293.75;;;27.48;69.49
54556;BME280;57291;37.520;15.106;2023-09-12T10:49:14;101297.34;;;27.45;70.17
54556;BME280;57291;37.520;15.106;2023-09-12T10:51:43;101292.94;;;27.29;70.86
54556;BME280;57291;37.520;15.106;2023-09-12T10:54:16;101292.19;;;27.65;69.12
54556;BME280;57291;37.520;15.106;2023-09-12T10:57:06;101292.59;;;27.77;60.65
54556;BME280;57291;37.520;15.106;2023-09-12T10:59:34;101290.56;;;28.06;59.80
54556;BME280;57291;37.520;15.106;2023-09-12T11:02:32;101286.97;;;28.17;60.57
54556;BME280;57291;37.520;15.106;2023-09-12T11:08:01;101292.91;;;28.37;59.20
54556;BME280;57291;37.520;15.106;2023-09-12T11:10:31;101286.91;;;28.45;58.43
54556;BME280;57291;37.520;15.106;2023-09-12T11:13:00;101287.66;;;28.60;57.42
54556;BME280;57291;37.520;15.106;2023-09-12T11:15:28;101288.03;;;28.69;57.39
54556;BME280;57291;37.520;15.106;2023-09-12T11:18:04;101287.31;;;28.37;58.57
54556;BME280;57291;37.520;15.106;2023-09-12T11:20:58;101290.56;;;28.17;59.05
54556;BME280;57291;37.520;15.106;2023-09-12T11:23:27;101281.81;;;27.94;57.79
54556;BME280;57291;37.520;15.106;2023-09-12T11:26:07;101287.00;;;27.88;61.49
54556;BME280;57291;37.520;15.106;2023-09-12T11:28:34;101284.19;;;27.99;62.14
54556;BME280;57291;37.520;15.106;2023-09-12T11:31:02;101276.22;;;27.72;63.21
54556;BME280;57291;37.520;15.106;2023-09-12T11:33:31;101278.63;;;27.88;61.94
54556;BME280;57291;37.520;15.106;2023-09-12T11:35:59;101279.78;;;28.05;63.30
54556;BME280;57291;37.520;15.106;2023-09-12T11:38:31;101274.59;;;28.07;60.80
54556;BME280;57291;37.520;15.106;2023-09-12T11:40:59;101276.19;;;28.12;63.33
54556;BME280;57291;37.520;15.106;2023-09-12T11:43:28;101273.03;;;27.85;63.94
54556;BME280;57291;37.520;15.106;2023-09-12T11:45:56;101276.19;;;27.44;65.95
54556;BME280;57291;37.520;15.106;2023-09-12T11:48:24;101271.03;;;27.39;66.07
54556;BME280;57291;37.520;15.106;2023-09-12T11:50:52;101277.00;;;27.33;66.25
54556;BME280;57291;37.520;15.106;2023-09-12T11:53:27;101273.38;;;27.15;66.82
54556;BME280;57291;37.520;15.106;2023-09-12T11:55:58;101273.78;;;27.13;66.82
54556;BME280;57291;37.520;15.106;2023-09-12T11:58:26;101278.09;;;27.04;65.30
54556;BME280;57291;37.520;15.106;2023-09-12T12:00:58;101276.16;;;27.11;66.46
54556;BME280;57291;37.520;15.106;2023-09-12T12:03:27;101268.94;;;27.07;64.27
54556;BME280;57291;37.520;15.106;2023-09-12T12:05:56;101277.78;;;27.20;66.16
54556;BME280;57291;37.520;15.106;2023-09-12T12:08:25;101274.19;;;27.23;68.47
54556;BME280;57291;37.520;15.106;2023-09-12T12:10:59;101280.09;;;27.10;65.81
54556;BME280;57291;37.520;15.106;2023-09-12T12:13:26;101276.09;;;27.04;68.71
54556;BME280;57291;37.520;15.106;2023-09-12T12:15:55;101262.63;;;27.17;69.86
54556;BME280;57291;37.520;15.106;2023-09-12T12:18:24;101269.75;;;27.11;70.94
54556;BME280;57291;37.520;15.106;2023-09-12T12:20:52;101271.31;;;26.94;70.41
54556;BME280;57291;37.520;15.106;2023-09-12T12:23:19;101270.91;;;26.88;69.52
54556;BME280;57291;37.520;15.106;2023-09-12T12:25:46;101260.94;;;26.98;70.50
54556;BME280;57291;37.520;15.106;2023-09-12T12:28:16;101264.13;;;26.89;71.42
54556;BME280;57291;37.520;15.106;2023-09-12T12:30:43;101261.78;;;27.06;72.91
54556;BME280;57291;37.520;15.106;2023-09-12T12:33:11;101248.19;;;26.97;73.80
54556;BME280;57291;37.520;15.106;2023-09-12T12:36:02;101250.97;;;26.90;74.14
54556;BME280;57291;37.520;15.106;2023-09-12T12:38:36;101248.22;;;27.01;74.63
54556;BME280;57291;37.520;15.106;2023-09-12T12:41:14;101258.56;;;26.89;74.47
54556;BME280;57291;37.520;15.106;2023-09-12T12:43:43;101253.72;;;26.72;74.92
54556;BME280;57291;37.520;15.106;2023-09-12T12:46:11;101244.97;;;26.88;74.96
54556;BME280;57291;37.520;15.106;2023-09-12T12:48:43;101253.75;;;26.83;74.02
54556;BME280;57291;37.520;15.106;2023-09-12T12:51:15;101253.00;;;27.11;73.42
54556;BME280;57291;37.520;15.106;2023-09-12T12:53:46;101259.75;;;26.88;72.92
54556;BME280;57291;37.520;15.106;2023-09-12T12:56:21;101255.75;;;26.86;73.73
54556;BME280;57291;37.520;15.106;2023-09-12T12:58:51;101258.53;;;26.82;74.54